createdAt,value
2023-01-03T00:01:50.305Z,68.43
2023-01-03T00:04:18.746Z,70.72
2023-01-03T00:06:51.505Z,65.17
2023-01-03T00:09:21.967Z,61.17
2023-01-03T00:12:09.546Z,61.43
2023-01-03T00:14:40.300Z,58.87
2023-01-03T00:17:09.272Z,67.77
2023-01-03T00:19:42.968Z,76.50
2023-01-03T00:22:12.147Z,62.27
2023-01-03T00:24:40.285Z,50.60
2023-01-03T00:27:08.498Z,42.83
2023-01-03T00:29:36.856Z,28.50
2023-01-03T00:32:04.886Z,19.35
2023-01-03T00:34:32.157Z,17.47
2023-01-03T00:36:59.994Z,19.27
2023-01-03T00:39:27.943Z,17.67
2023-01-03T00:41:55.272Z,16.87
2023-01-03T00:44:22.653Z,20.03
2023-01-03T00:46:50.205Z,27.33
2023-01-03T00:49:17.710Z,33.90
2023-01-03T00:51:45.586Z,38.77
2023-01-03T00:54:14.581Z,49.43
2023-01-03T00:56:44.242Z,44.67
2023-01-03T00:59:12.884Z,38.77
2023-01-03T01:01:48.467Z,37.70
2023-01-03T01:04:22.560Z,33.43
2023-01-03T01:06:56.301Z,39.00
2023-01-03T01:09:29.287Z,45.97
2023-01-03T01:11:57.064Z,44.40
2023-01-03T01:14:27.552Z,36.63
2023-01-03T01:17:02.213Z,31.17
2023-01-03T01:19:36.292Z,29.70
2023-01-03T01:22:04.091Z,28.40
2023-01-03T01:24:31.705Z,54.23
2023-01-03T01:26:59.713Z,34.50
2023-01-03T01:29:26.942Z,25.07
2023-01-03T01:31:54.678Z,23.00
2023-01-03T01:34:22.178Z,21.97
2023-01-03T01:36:49.697Z,18.60
2023-01-03T01:39:20.562Z,14.97
2023-01-03T01:42:08.383Z,16.43
2023-01-03T01:44:54.198Z,21.30
2023-01-03T01:47:40.321Z,25.27
2023-01-03T01:50:31.910Z,26.93
2023-01-03T01:53:10.928Z,29.67
2023-01-03T01:58:12.893Z,28.53
2023-01-03T02:03:09.890Z,26.23
2023-01-03T02:05:42.059Z,29.73
2023-01-03T02:08:09.231Z,30.23
2023-01-03T02:10:42.449Z,32.93
2023-01-03T02:13:18.928Z,33.73
2023-01-03T02:16:13.198Z,28.00
2023-01-03T02:18:47.714Z,22.00
2023-01-03T02:21:50.411Z,20.50
2023-01-03T02:24:27.016Z,22.13
2023-01-03T02:27:10.037Z,34.47
2023-01-03T02:30:09.793Z,32.47
2023-01-03T02:32:45.259Z,33.23
2023-01-03T02:35:25.094Z,31.40
2023-01-03T02:37:58.463Z,39.07
2023-01-03T02:40:37.786Z,39.27
2023-01-03T02:43:16.620Z,34.85
2023-01-03T02:46:10.876Z,29.30
2023-01-03T02:48:46.695Z,24.40
2023-01-03T02:51:40.195Z,27.60
2023-01-03T02:54:10.859Z,29.93
2023-01-03T02:56:51.565Z,26.77
2023-01-03T02:59:37.034Z,29.83
2023-01-03T03:02:05.729Z,27.03
2023-01-03T03:04:36.500Z,27.92
2023-01-03T03:07:17.871Z,31.53
2023-01-03T03:10:04.459Z,30.03
2023-01-03T03:12:52.244Z,29.63
2023-01-03T03:15:24.169Z,41.47
2023-01-03T03:17:58.092Z,38.33
2023-01-03T03:20:44.262Z,40.90
2023-01-03T03:23:34.787Z,37.60
2023-01-03T03:26:10.139Z,35.57
2023-01-03T03:28:39.689Z,28.97
2023-01-03T03:31:25.156Z,26.83
2023-01-03T03:33:56.581Z,31.40
2023-01-03T03:36:26.929Z,39.17
2023-01-03T03:38:54.522Z,37.17
2023-01-03T03:42:09.503Z,37.17
2023-01-03T03:45:02.196Z,43.13
2023-01-03T03:47:34.252Z,28.90
2023-01-03T03:50:07.785Z,24.03
2023-01-03T03:52:36.733Z,25.73
2023-01-03T03:55:12.119Z,24.42
2023-01-03T03:57:53.145Z,22.73
2023-01-03T04:00:24.714Z,20.37
2023-01-03T04:02:55.864Z,31.33
2023-01-03T04:05:27.965Z,28.07
2023-01-03T04:07:55.706Z,29.07
2023-01-03T04:10:23.935Z,30.73
2023-01-03T04:12:52.570Z,28.53
2023-01-03T04:15:20.432Z,25.83
2023-01-03T04:17:47.800Z,33.10
2023-01-03T04:20:15.660Z,30.27
2023-01-03T04:22:43.919Z,29.27
2023-01-03T04:25:11.625Z,23.67
2023-01-03T04:27:39.007Z,23.10
2023-01-03T04:30:11.638Z,26.33
2023-01-03T04:32:39.386Z,24.73
2023-01-03T04:35:07.411Z,37.47
2023-01-03T04:37:35.588Z,51.33
2023-01-03T04:40:04.119Z,61.92
2023-01-03T04:42:50.317Z,62.72
2023-01-03T04:45:18.226Z,36.60
2023-01-03T04:47:46.396Z,23.67
2023-01-03T04:50:14.038Z,21.90
2023-01-03T04:52:41.915Z,25.57
2023-01-03T04:55:10.320Z,31.00
2023-01-03T04:57:37.799Z,25.07
2023-01-03T05:00:06.522Z,25.67
2023-01-03T05:02:34.206Z,25.75
2023-01-03T05:05:01.530Z,24.77
2023-01-03T05:07:29.308Z,27.80
2023-01-03T05:09:57.055Z,31.40
2023-01-03T05:12:24.407Z,32.80
2023-01-03T05:14:52.613Z,36.17
2023-01-03T05:17:22.964Z,48.92
2023-01-03T05:20:09.783Z,52.40
2023-01-03T05:22:56.533Z,42.87
2023-01-03T05:25:43.224Z,42.90
2023-01-03T05:28:17.063Z,32.40
2023-01-03T05:30:45.032Z,32.17
2023-01-03T05:33:14.097Z,24.63
2023-01-03T05:35:41.916Z,32.25
2023-01-03T05:38:09.234Z,32.53
2023-01-03T05:40:41.203Z,38.83
2023-01-03T05:43:09.020Z,35.33
2023-01-03T05:45:38.194Z,35.70
2023-01-03T05:48:06.935Z,33.60
2023-01-03T05:50:34.826Z,29.27
2023-01-03T05:53:03.951Z,28.77
2023-01-03T05:55:31.367Z,39.60
2023-01-03T05:57:58.895Z,38.30
2023-01-03T06:00:26.469Z,44.60
2023-01-03T06:02:54.339Z,61.73
2023-01-03T06:05:21.809Z,42.07
2023-01-03T06:07:49.610Z,40.27
2023-01-03T06:10:17.306Z,45.73
2023-01-03T06:12:44.693Z,52.17
2023-01-03T06:15:12.033Z,61.00
2023-01-03T06:18:00.275Z,60.27
2023-01-03T06:20:28.049Z,72.50
2023-01-03T06:22:55.901Z,88.57
2023-01-03T06:25:23.250Z,91.20
2023-01-03T06:27:50.634Z,96.90
2023-01-03T06:30:18.525Z,74.77
2023-01-03T06:32:48.666Z,70.17
2023-01-03T06:35:15.941Z,77.37
2023-01-03T06:37:43.857Z,76.23
2023-01-03T06:40:11.517Z,83.70
2023-01-03T06:42:45.137Z,82.57
2023-01-03T06:45:33.337Z,80.50
2023-01-03T06:48:26.683Z,76.47
2023-01-03T06:51:13.422Z,76.03
2023-01-03T06:53:43.360Z,73.53
2023-01-03T06:58:39.513Z,69.97
2023-01-03T07:01:07.088Z,71.57
2023-01-03T07:03:35.083Z,63.10
2023-01-03T07:06:03.193Z,67.37
2023-01-03T07:08:30.529Z,66.23
2023-01-03T07:10:59.071Z,62.53
2023-01-03T07:13:45.237Z,68.50
2023-01-03T07:16:18.229Z,64.27
2023-01-03T07:18:54.440Z,61.40
2023-01-03T07:21:27.725Z,62.77
2023-01-03T07:24:02.544Z,65.97
2023-01-03T07:26:32.358Z,64.60
2023-01-03T07:31:27.779Z,70.07
2023-01-03T07:33:55.684Z,76.13
2023-01-03T07:36:23.072Z,78.73
2023-01-03T07:38:50.375Z,80.07
2023-01-03T07:41:21.037Z,78.80
2023-01-03T07:43:49.654Z,77.30
2023-01-03T07:46:18.417Z,75.95
2023-01-03T07:48:48.652Z,80.18
2023-01-03T07:51:19.002Z,77.43
2023-01-03T07:53:50.019Z,94.00
2023-01-03T07:56:22.098Z,81.77
2023-01-03T07:58:52.188Z,68.27
2023-01-03T08:01:24.569Z,53.20
2023-01-03T08:03:53.675Z,73.03
2023-01-03T08:06:24.208Z,65.80
2023-01-03T08:09:12.139Z,66.07
2023-01-03T08:11:58.486Z,67.93
2023-01-03T08:14:27.392Z,53.37
2023-01-03T08:16:56.051Z,53.40
2023-01-03T08:19:25.358Z,48.30
2023-01-03T08:21:53.171Z,40.83
2023-01-03T08:24:20.681Z,38.80
2023-01-03T08:26:48.597Z,30.70
2023-01-03T08:29:16.419Z,55.17
2023-01-03T08:31:54.707Z,51.77
2023-01-03T08:34:29.430Z,41.78
2023-01-03T08:37:03.756Z,46.40
2023-01-03T08:39:39.431Z,47.83
2023-01-03T08:42:08.962Z,46.87
2023-01-03T08:44:37.559Z,44.27
2023-01-03T08:47:08.866Z,48.23
2023-01-03T08:49:37.511Z,55.53
2023-01-03T08:52:05.293Z,55.67
2023-01-03T08:54:32.888Z,54.07
2023-01-03T08:57:00.442Z,53.40
2023-01-03T08:59:27.774Z,55.20
2023-01-03T09:01:59.402Z,56.73
2023-01-03T09:04:27.158Z,46.27
2023-01-03T09:06:54.400Z,47.13
2023-01-03T09:09:21.633Z,47.63
2023-01-03T09:11:49.932Z,47.27
2023-01-03T09:14:17.472Z,46.57
2023-01-03T09:16:48.927Z,42.17
2023-01-03T09:19:17.728Z,37.87
2023-01-03T09:21:45.114Z,37.87
2023-01-03T09:24:12.584Z,34.90
2023-01-03T09:26:41.913Z,30.20
2023-01-03T09:29:09.321Z,28.70
2023-01-03T09:31:39.935Z,24.60
2023-01-03T09:34:08.279Z,22.63
2023-01-03T09:36:38.667Z,21.03
2023-01-03T09:39:07.448Z,25.77
2023-01-03T09:41:39.591Z,20.63
2023-01-03T09:44:09.273Z,15.77
2023-01-03T09:46:37.913Z,17.87
2023-01-03T09:49:07.489Z,19.85
2023-01-03T09:51:57.500Z,18.33
2023-01-03T09:54:46.471Z,13.80
2023-01-03T09:57:53.836Z,15.85
2023-01-03T10:00:51.554Z,12.73
2023-01-03T10:03:50.500Z,15.20
2023-01-03T10:06:43.977Z,12.50
2023-01-03T10:09:43.129Z,20.30
2023-01-03T10:12:29.273Z,34.90
2023-01-03T10:15:03.073Z,20.83
2023-01-03T10:17:48.879Z,21.60
2023-01-03T10:20:27.817Z,26.23
2023-01-03T10:22:58.565Z,25.17
2023-01-03T10:25:29.328Z,30.57
2023-01-03T10:28:04.655Z,29.90
2023-01-03T10:30:35.181Z,31.67
2023-01-03T10:33:29.670Z,27.67
2023-01-03T10:35:57.519Z,31.70
2023-01-03T10:38:26.039Z,46.57
2023-01-03T10:41:01.721Z,45.90
2023-01-03T10:43:44.198Z,29.23
2023-01-03T10:46:17.792Z,19.80
2023-01-03T10:51:50.847Z,6.53
2023-01-03T10:54:18.629Z,5.73
2023-01-03T10:56:47.826Z,4.30
2023-01-03T10:59:26.165Z,4.70
2023-01-03T11:02:16.940Z,3.95
2023-01-03T11:04:44.922Z,4.50
2023-01-03T11:07:17.163Z,4.73
2023-01-03T11:09:51.191Z,4.23
2023-01-03T11:12:30.490Z,5.10
2023-01-03T11:14:58.476Z,4.28
2023-01-03T11:17:27.086Z,4.00
2023-01-03T11:19:55.711Z,5.20
2023-01-03T11:22:49.237Z,4.75
2023-01-03T11:25:30.572Z,5.12
2023-01-03T11:28:03.975Z,5.30
2023-01-03T11:30:51.046Z,5.95
2023-01-03T11:33:37.012Z,5.28
2023-01-03T11:36:15.837Z,5.22
2023-01-03T11:39:16.986Z,4.28
2023-01-03T11:41:56.210Z,5.85
2023-01-03T11:44:48.395Z,4.95
2023-01-03T11:47:42.624Z,4.70
2023-01-03T11:50:28.770Z,4.28
2023-01-03T11:53:02.296Z,5.18
2023-01-03T11:56:05.331Z,4.60
2023-01-03T11:58:45.438Z,4.30
2023-01-03T12:01:47.277Z,5.35
2023-01-03T12:04:48.105Z,5.00
2023-01-03T12:10:22.882Z,4.78
2023-01-03T12:12:59.465Z,5.35
2023-01-03T12:15:49.781Z,6.50
2023-01-03T12:18:25.395Z,6.28
2023-01-03T12:21:07.851Z,6.78
2023-01-03T12:23:47.847Z,6.72
2023-01-03T12:26:17.695Z,6.28
2023-01-03T12:31:32.066Z,6.72
2023-01-03T12:34:12.339Z,7.70
2023-01-03T12:36:53.725Z,6.87
2023-01-03T12:39:42.537Z,6.18
2023-01-03T12:42:51.546Z,7.37
2023-01-03T12:48:17.658Z,6.47
2023-01-03T12:50:50.265Z,7.68
2023-01-03T12:53:46.777Z,6.62
2023-01-03T12:56:39.658Z,6.72
2023-01-03T12:59:36.957Z,6.32
2023-01-03T13:02:29.025Z,6.50
2023-01-03T13:05:16.151Z,8.77
2023-01-03T13:07:51.592Z,7.93
2023-01-03T13:10:23.899Z,10.10
2023-01-03T13:12:55.332Z,9.48
2023-01-03T13:15:37.548Z,9.38
2023-01-03T13:18:23.575Z,9.57
2023-01-03T13:20:53.125Z,9.60
2023-01-03T13:23:35.979Z,11.38
2023-01-03T13:26:06.673Z,11.65
2023-01-03T13:28:36.349Z,12.65
2023-01-03T13:31:19.163Z,13.85
2023-01-03T13:33:53.859Z,13.57
2023-01-03T13:36:22.642Z,15.95
2023-01-03T13:38:52.305Z,14.73
2023-01-03T13:41:37.494Z,14.43
2023-01-03T13:44:25.391Z,14.13
2023-01-03T13:46:52.855Z,15.48
2023-01-03T13:49:27.004Z,17.40
2023-01-03T13:51:57.394Z,18.40
2023-01-03T13:54:36.874Z,16.02
2023-01-03T13:57:07.124Z,18.17
2023-01-03T13:59:42.843Z,19.10
2023-01-03T14:02:10.626Z,20.87
2023-01-03T14:05:14.349Z,20.55
2023-01-03T14:08:03.186Z,26.17
2023-01-03T14:10:32.956Z,24.00
2023-01-03T14:13:28.063Z,25.67
2023-01-03T14:16:14.446Z,27.63
2023-01-03T14:19:05.963Z,27.13
2023-01-03T14:22:21.137Z,34.67
2023-01-03T14:24:52.047Z,30.97
2023-01-03T14:27:22.344Z,30.60
2023-01-03T14:29:53.373Z,25.77
2023-01-03T14:32:30.416Z,24.90
2023-01-03T14:35:03.767Z,24.07
2023-01-03T14:37:33.360Z,24.13
2023-01-03T14:40:06.463Z,24.57
2023-01-03T14:42:34.403Z,25.43
2023-01-03T14:45:05.358Z,24.37
2023-01-03T14:47:40.747Z,31.23
2023-01-03T14:50:30.157Z,24.57
2023-01-03T14:55:30.330Z,27.37
2023-01-03T14:57:58.545Z,25.97
2023-01-03T15:00:33.250Z,31.20
2023-01-03T15:03:04.845Z,29.57
2023-01-03T15:05:41.048Z,31.03
2023-01-03T15:08:26.529Z,54.97
2023-01-03T15:10:59.917Z,60.27
2023-01-03T15:13:36.741Z,25.63
2023-01-03T15:16:07.576Z,29.17
2023-01-03T15:18:40.076Z,22.43
2023-01-03T15:21:07.679Z,19.30
2023-01-03T15:23:42.390Z,24.73
2023-01-03T15:26:24.628Z,27.80
2023-01-03T15:29:05.530Z,27.07
2023-01-03T15:31:37.333Z,57.53
2023-01-03T15:34:15.465Z,50.67
2023-01-03T15:36:46.883Z,46.07
2023-01-03T15:39:21.437Z,49.40
2023-01-03T15:44:56.432Z,39.33
2023-01-03T15:47:29.854Z,35.77
2023-01-03T15:50:00.768Z,34.40
2023-01-03T15:52:28.417Z,27.43
2023-01-03T15:54:55.779Z,23.60
2023-01-03T15:57:29.983Z,25.07
2023-01-03T16:00:02.102Z,23.53
2023-01-03T16:02:32.562Z,22.80
2023-01-03T16:05:00.235Z,21.12
2023-01-03T16:07:27.983Z,21.13
2023-01-03T16:09:55.411Z,20.03
2023-01-03T16:12:31.768Z,17.67
2023-01-03T16:14:59.670Z,19.67
2023-01-03T16:17:28.796Z,18.60
2023-01-03T16:19:58.977Z,29.25
2023-01-03T16:22:35.697Z,57.40
2023-01-03T16:25:04.834Z,48.83
2023-01-03T16:27:32.602Z,42.00
2023-01-03T16:29:59.960Z,39.60
2023-01-03T16:32:30.009Z,37.73
2023-01-03T16:35:03.706Z,41.53
2023-01-03T16:37:31.121Z,45.03
2023-01-03T16:39:59.218Z,41.43
2023-01-03T16:42:29.378Z,39.73
2023-01-03T16:44:57.142Z,35.63
2023-01-03T16:47:31.239Z,31.33
2023-01-03T16:50:02.788Z,29.90
2023-01-03T16:52:39.263Z,38.23
2023-01-03T16:55:18.931Z,34.97
2023-01-03T16:57:53.593Z,26.27
2023-01-03T17:00:24.274Z,31.83
2023-01-03T17:02:52.321Z,38.83
2023-01-03T17:05:19.792Z,43.70
2023-01-03T17:07:49.291Z,38.53
2023-01-03T17:10:35.719Z,42.17
2023-01-03T17:13:10.444Z,42.30
2023-01-03T17:15:41.842Z,36.37
2023-01-03T17:18:20.062Z,47.47
2023-01-03T17:21:00.407Z,43.97
2023-01-03T17:23:30.458Z,42.27
2023-01-03T17:25:58.350Z,34.10
2023-01-03T17:28:26.168Z,35.23
2023-01-03T17:30:56.826Z,40.53
2023-01-03T17:33:31.993Z,42.27
2023-01-03T17:36:01.471Z,40.70
2023-01-03T17:38:33.204Z,39.97
2023-01-03T17:41:01.828Z,39.17
2023-01-03T17:43:30.248Z,44.60
2023-01-03T17:46:23.510Z,48.10
2023-01-03T17:49:11.777Z,57.60
2023-01-03T17:51:39.722Z,61.73
2023-01-03T17:54:10.088Z,52.87
2023-01-03T17:56:37.609Z,54.83
2023-01-03T17:59:05.326Z,58.47
2023-01-03T18:01:34.265Z,65.43
2023-01-03T18:04:02.554Z,67.45
2023-01-03T18:06:30.480Z,64.15
2023-01-03T18:09:00.018Z,54.03
2023-01-03T18:11:27.734Z,49.07
2023-01-03T18:13:55.678Z,103.13
2023-01-03T18:16:24.236Z,68.40
2023-01-03T18:18:55.653Z,55.00
2023-01-03T18:21:27.992Z,54.70
2023-01-03T18:24:20.443Z,50.80
2023-01-03T18:26:52.551Z,47.10
2023-01-03T18:29:21.806Z,44.20
2023-01-03T18:31:50.289Z,59.40
2023-01-03T18:34:18.173Z,55.65
2023-01-03T18:36:51.090Z,50.22
2023-01-03T18:39:29.805Z,50.87
2023-01-03T18:42:17.246Z,50.08
2023-01-03T18:44:44.685Z,55.30
2023-01-03T18:47:13.983Z,52.07
2023-01-03T18:49:41.602Z,68.35
2023-01-03T18:52:32.110Z,59.57
2023-01-03T18:55:01.363Z,70.27
2023-01-03T18:57:29.452Z,67.12
2023-01-03T18:59:57.727Z,55.03
2023-01-03T19:02:26.750Z,54.78
2023-01-03T19:04:54.337Z,51.55
2023-01-03T19:07:32.137Z,60.97
2023-01-03T19:10:00.931Z,65.23
2023-01-03T19:12:31.301Z,56.43
2023-01-03T19:14:58.591Z,43.60
2023-01-03T19:17:26.313Z,43.23
2023-01-03T19:19:53.580Z,42.27
2023-01-03T19:22:29.394Z,38.53
2023-01-03T19:25:01.991Z,35.53
2023-01-03T19:27:38.219Z,42.73
2023-01-03T19:30:14.541Z,43.27
2023-01-03T19:32:42.297Z,52.13
2023-01-03T19:35:18.312Z,59.40
2023-01-03T19:37:45.878Z,69.37
2023-01-03T19:40:15.535Z,61.17
2023-01-03T19:45:19.854Z,68.63
2023-01-03T19:47:47.543Z,76.73
2023-01-03T19:50:24.646Z,81.37
2023-01-03T19:52:53.974Z,92.90
2023-01-03T19:55:32.543Z,73.70
2023-01-03T19:58:10.511Z,55.27
2023-01-03T20:00:38.278Z,55.03
2023-01-03T20:03:15.028Z,58.10
2023-01-03T20:05:42.618Z,53.40
2023-01-03T20:08:12.572Z,53.17
2023-01-03T20:10:43.607Z,57.17
2023-01-03T20:13:20.652Z,80.23
2023-01-03T20:15:49.323Z,115.70
2023-01-03T20:18:25.188Z,101.90
2023-01-03T20:20:55.398Z,107.43
2023-01-03T20:23:23.461Z,103.17
2023-01-03T20:25:51.772Z,107.87
2023-01-03T20:28:29.433Z,97.53
2023-01-03T20:30:59.527Z,98.20
2023-01-03T20:33:28.286Z,127.23
2023-01-03T20:36:12.551Z,89.20
2023-01-03T20:38:46.075Z,108.00
2023-01-03T20:41:14.904Z,109.37
2023-01-03T20:43:44.217Z,132.40
2023-01-03T20:46:18.360Z,118.20
2023-01-03T20:48:55.608Z,120.73
2023-01-03T20:51:24.619Z,117.90
2023-01-03T20:56:24.067Z,94.53
2023-01-03T20:58:51.923Z,88.78
2023-01-03T21:01:19.440Z,133.47
2023-01-03T21:03:47.071Z,129.13
2023-01-03T21:06:23.455Z,131.27
2023-01-03T21:08:54.392Z,123.93
2023-01-03T21:11:28.088Z,117.83
2023-01-03T21:13:57.015Z,126.03
2023-01-03T21:16:36.931Z,130.00
2023-01-03T21:19:11.927Z,141.37
2023-01-03T21:21:41.089Z,153.70
2023-01-03T21:24:10.855Z,145.32
2023-01-03T21:26:38.278Z,141.43
2023-01-03T21:29:06.491Z,129.23
2023-01-03T21:31:35.065Z,117.83
2023-01-03T21:34:05.350Z,85.18
2023-01-03T21:36:35.361Z,133.90
2023-01-03T21:39:04.107Z,147.87
2023-01-03T21:41:34.610Z,142.20
2023-01-03T21:44:04.130Z,160.77
2023-01-03T21:46:31.619Z,144.37
2023-01-03T21:48:59.184Z,107.57
2023-01-03T21:51:38.026Z,83.00
2023-01-03T21:59:16.805Z,123.67
2023-01-03T22:02:06.889Z,111.20
2023-01-03T22:04:34.992Z,106.47
2023-01-03T22:07:02.563Z,102.60
2023-01-03T22:09:49.648Z,90.33
2023-01-03T22:12:18.686Z,110.30
2023-01-03T22:14:46.761Z,115.65
2023-01-03T22:17:14.911Z,107.23
2023-01-03T22:19:42.528Z,112.20
2023-01-03T22:22:10.451Z,122.40
2023-01-03T22:24:37.746Z,116.40
2023-01-03T22:27:05.601Z,107.80
2023-01-03T22:29:32.933Z,104.40
2023-01-03T22:32:00.297Z,100.13
2023-01-03T22:34:28.055Z,97.50
2023-01-03T22:36:55.332Z,102.50
2023-01-03T22:39:22.571Z,122.20
2023-01-03T22:41:50.222Z,101.90
2023-01-03T22:44:17.520Z,100.33
2023-01-03T22:46:44.769Z,101.17
2023-01-03T22:49:12.433Z,85.43
2023-01-03T22:51:39.927Z,75.70
2023-01-03T22:54:07.464Z,64.20
2023-01-03T22:56:35.146Z,65.27
2023-01-03T22:59:02.625Z,61.10
2023-01-03T23:01:30.330Z,66.80
2023-01-03T23:04:03.850Z,98.17
2023-01-03T23:06:32.436Z,102.93
2023-01-03T23:09:01.474Z,92.30
2023-01-03T23:11:49.790Z,88.12
2023-01-03T23:14:22.683Z,69.97
2023-01-03T23:16:51.495Z,92.10
2023-01-03T23:19:23.857Z,92.43
2023-01-03T23:21:53.126Z,128.57
2023-01-03T23:24:25.313Z,125.57
2023-01-03T23:26:53.671Z,129.33
2023-01-03T23:29:21.992Z,126.55
2023-01-03T23:31:49.424Z,124.97
2023-01-03T23:34:16.642Z,139.63
2023-01-03T23:36:44.614Z,126.63
2023-01-03T23:39:17.461Z,133.97
2023-01-03T23:41:46.058Z,130.27
2023-01-03T23:44:13.605Z,122.83
2023-01-03T23:46:41.596Z,120.33
2023-01-03T23:49:11.597Z,110.43
2023-01-03T23:51:38.963Z,106.93
2023-01-03T23:54:06.247Z,103.67
2023-01-03T23:56:34.027Z,105.57
2023-01-03T23:59:01.281Z,92.87
